Bei Facebook empfehlenBei Twitter postenGoogle plusPinterest

Das Wetter im Erzgebirge am 07.05.2015

Wetter und Klima am 07.05.2015 Holzhau im Erzgebirge (630m ü.NN)
Letzte gemessene Temperatur und Uhrzeit der Messung23:45:00 Uhr3.50 °C
Temperatur (Maximum / Höchstwert) und Uhrzeit der Messung14:15:00 Uhr15.20 °C
Temperatur (Minimum / Tiefstwert) und Uhrzeit der Messung06:15:001.80 °C
Errechneter Absolutwert der Temperaturschwankungen zwischen Tmin und Tmax des Tages13.40 K
Errechnete Tagesmitteltemperatur9.13542 °C
Gesamt - Niederschlag des Tages (in flüssiger Form)0.00 Liter / m²
Luftdruck (Maximum / Höchstwert) und Zeitpunkt der Messung23:45:00 Uhr1018.30 hPa
Luftdruck (Minimum / Tiefstwert) und Zeitpunkt der Messung00:00:00 Uhr1014.20 hPa
Errechneter Absolutwert der Luftdruckschwankungen des Tages4.10 hPa
Höchste gemessene Windgeschwindigkeit und Uhrzeit der Messung04:30:00 Uhr183.60 km/h
Errechnete Windhäufigkeit in Relation zu den Messwerten des Tages16.66667 %
Niedrigste Windkühle (Windchill) und Zeitpunkt der Messung04:30:00 Uhr-8.60 °C
Taupunkt (Maximum / Höchstwert) und Uhrzeit der Messung07:30:00 Uhr6.30 °C
Taupunkt (Minimum / Tiefstwert) und Uhrzeit der Messung05:45:000.40 °C
Anzahl der automatisch eingelesenen Messwerte 96

Detaillierte Wetter- und Klima- Messwerte für den 07.05.2015 in Holzhau im Erzgebirge (630m ü.NN)
ZeitTemperaturLuftdruckRel. LuftfeuchteWindWindrichtungWindchillTaupunktNiederschlag l/m²
23:45:003.50 °C1018.30 hPa83.00 %0.90 °C 
23:30:003.60 °C1018.20 hPa82.00 %0.80 °C 
23:15:004.20 °C1018.10 hPa81.00 %1.20 °C 
23:00:004.60 °C1018.20 hPa81.00 %1.60 °C 
22:45:004.50 °C1018.10 hPa81.00 %1.50 °C 
22:30:004.40 °C1018.30 hPa81.00 %1.40 °C 
22:15:004.60 °C1018.10 hPa80.00 %1.50 °C 
22:00:004.80 °C1017.90 hPa78.00 %1.30 °C 
21:45:005.20 °C1018.00 hPa76.00 %1.30 °C 
21:30:005.80 °C1017.80 hPa74.00 %1.50 °C 
21:15:006.40 °C1017.80 hPa71.00 %1.50 °C 
21:00:007.30 °C1017.40 hPa69.00 %2.00 °C 
20:45:008.50 °C1017.30 hPa66.00 %2.50 °C 
20:30:009.90 °C1017.20 hPa62.00 %3.00 °C 
20:15:0011.40 °C1017.00 hPa57.00 %3.20 °C 
20:00:0012.40 °C1016.70 hPa54.00 %3.40 °C 
19:45:0012.80 °C1016.70 hPa53.00 %3.50 °C 
19:30:0012.90 °C1016.60 hPa52.00 %3.30 °C 
19:15:0013.30 °C1016.50 hPa52.00 %3.70 °C 
19:00:0013.30 °C1016.20 hPa51.00 %3.40 °C 
18:45:0013.60 °C1016.30 hPa51.00 %3.70 °C 
18:30:0013.90 °C1016.30 hPa51.00 %3.90 °C 
18:15:0014.40 °C1016.20 hPa49.00 %3.80 °C 
18:00:0014.30 °C1016.10 hPa50.00 %4.00 °C 
17:45:0014.90 °C1016.00 hPa50.00 %4.60 °C 
17:30:0014.90 °C1015.90 hPa47.00 %3.70 °C 
17:15:0014.90 °C1015.80 hPa50.00 %5.04 km/hWNW15.30 °C4.60 °C 
17:00:0014.50 °C1016.00 hPa50.00 %4.20 °C 
16:45:0014.20 °C1015.90 hPa50.00 %3.90 °C 
16:30:0013.90 °C1015.90 hPa49.00 %3.40 °C 
16:15:0014.10 °C1015.90 hPa47.00 %3.00 °C 
16:00:0014.80 °C1015.90 hPa43.00 %2.40 °C 
15:45:0014.90 °C1015.90 hPa47.00 %10.44 km/hNW14.40 °C3.70 °C 
15:30:0014.30 °C1015.80 hPa51.00 %9.72 km/hNNW13.80 °C4.30 °C 
15:15:0013.50 °C1015.90 hPa53.00 %5.40 km/hWSW13.60 °C4.10 °C 
15:00:0012.90 °C1016.10 hPa55.00 %4.10 °C 
14:45:0013.90 °C1016.00 hPa51.00 %3.90 °C 
14:30:0014.30 °C1016.20 hPa48.00 %3.50 °C 
14:15:0015.20 °C1016.00 hPa46.00 %6.84 km/hNW15.30 °C3.70 °C 
14:00:0015.00 °C1016.00 hPa51.00 %5.00 °C 
13:45:0014.20 °C1015.80 hPa51.00 %4.20 °C 
13:30:0014.90 °C1016.00 hPa44.00 %5.40 km/hWNW15.20 °C2.80 °C 
13:15:0014.40 °C1015.80 hPa50.00 %4.10 °C 
13:00:0013.90 °C1016.00 hPa52.00 %10.08 km/hNNW13.30 °C4.20 °C 
12:45:0014.40 °C1015.90 hPa49.00 %7.20 km/hWNW14.30 °C3.80 °C 
12:30:0013.50 °C1015.90 hPa52.00 %4.68 km/hWNW13.50 °C3.80 °C 
12:15:0013.90 °C1015.90 hPa53.00 %10.80 km/hW13.20 °C4.50 °C 
12:00:0012.80 °C1016.00 hPa57.00 %4.50 °C 
11:45:0013.10 °C1016.10 hPa55.00 %4.30 °C 
11:30:0013.40 °C1016.10 hPa55.00 %8.64 km/hSSW12.90 °C4.60 °C 
11:15:0012.90 °C1016.00 hPa58.00 %4.80 °C 
11:00:0012.90 °C1015.90 hPa57.00 %4.60 °C 
10:45:0014.30 °C1015.90 hPa57.00 %8.64 km/hWNW14.00 °C5.90 °C 
10:30:0013.30 °C1015.80 hPa60.00 %8.64 km/hW12.80 °C5.70 °C 
10:15:0012.40 °C1015.80 hPa61.00 %5.10 °C 
10:00:0012.10 °C1015.90 hPa64.00 %5.50 °C 
09:45:0012.10 °C1016.00 hPa63.00 %5.30 °C 
09:30:0012.30 °C1015.80 hPa66.00 %6.10 °C 
09:15:0011.90 °C1015.80 hPa66.00 %5.80 °C 
09:00:0011.60 °C1015.70 hPa68.00 %5.90 °C 
08:45:0011.30 °C1015.70 hPa69.00 %5.80 °C 
08:30:0011.10 °C1015.80 hPa70.00 %5.80 °C 
08:15:0010.80 °C1015.60 hPa71.00 %5.80 °C 
08:00:0010.50 °C1015.40 hPa72.00 %10.08 km/hNW9.20 °C5.70 °C 
07:45:0010.40 °C1015.40 hPa73.00 %5.80 °C 
07:30:009.80 °C1015.30 hPa79.00 %14.40 km/hSSW7.70 °C6.30 °C 
07:15:007.80 °C1015.20 hPa88.00 %5.90 °C 
07:00:005.90 °C1015.00 hPa91.00 %4.50 °C 
06:45:005.00 °C1015.00 hPa91.00 %3.70 °C 
06:30:003.60 °C1015.00 hPa91.00 %2.30 °C 
06:15:001.80 °C1014.90 hPa91.00 %0.50 °C 
06:00:001.80 °C1014.90 hPa91.00 %0.50 °C 
05:45:001.90 °C1014.90 hPa90.00 %0.40 °C 
05:30:002.50 °C1014.70 hPa90.00 %1.00 °C 
05:15:002.80 °C1014.70 hPa91.00 %1.50 °C 
05:00:002.90 °C1014.70 hPa91.00 %1.60 °C 
04:45:002.90 °C1014.60 hPa91.00 %1.60 °C 
04:30:002.90 °C1014.60 hPa91.00 %183.60 km/hONO-8.60 °C1.60 °C 
04:15:002.80 °C1014.80 hPa90.00 %1.30 °C 
04:00:002.90 °C1014.70 hPa90.00 %1.40 °C 
03:45:003.20 °C1014.60 hPa90.00 %1.70 °C 
03:30:003.10 °C1014.50 hPa90.00 %1.60 °C 
03:15:003.10 °C1014.40 hPa90.00 %1.60 °C 
03:00:003.20 °C1014.60 hPa89.00 %1.60 °C 
02:45:003.10 °C1014.50 hPa89.00 %1.50 °C 
02:30:003.40 °C1014.50 hPa89.00 %1.80 °C 
02:15:003.40 °C1014.80 hPa89.00 %1.80 °C 
02:00:003.60 °C1014.80 hPa88.00 %1.80 °C 
01:45:003.80 °C1014.60 hPa88.00 %2.00 °C 
01:30:004.10 °C1014.90 hPa87.00 %2.10 °C 
01:15:004.50 °C1014.70 hPa88.00 %2.70 °C 
01:00:004.70 °C1014.50 hPa88.00 %2.90 °C 
00:45:004.50 °C1014.50 hPa88.00 %2.70 °C 
00:30:004.40 °C1014.40 hPa87.00 %2.40 °C 
00:15:004.60 °C1014.40 hPa87.00 %2.60 °C 
00:00:004.80 °C1014.20 hPa86.00 %2.70 °C 

Permanenter Link zu dieser Seite: Wetter im Erzgebirge am 07.05.2015
Performance-Info: Die Erstellung der Seite / Statistik(en) / Tabelle(n) erforderte 5 Datenbankserver-Abfrage(n) und dauerte 101 Millisekunden. (Dieser Messwert ist von der Gesamt-Auslastung des Servers abhängig.)
Erzgebirge - Wetter | Erzgebirge - Wetter (Mobilgeräte) | Komplette Klimadatenbank